• Join FlightAware (Why Join?)
  • Login
  • US Flag 
02:37PM EDT


 

Airport Tracker/Info


-or-


 

Live Flight TrackerFlight Track Log ✈ CSC8977 ✈ 03-Feb-2014 ✈ ZUUU / CTU - RCSS / TSA

Flight Track Log - Related Links

Times and Time Zones

All times are in EST time to prevent confusion due to time zone crossing. See the CSC8977 flight status page for this flight to view local times or setup timezone preferences in your user account.

Time Position Orientation Groundspeed Altitude Reporting Facility
EST Latitude Longitude Course Direction KTS MPH feet Rate Location/Type
12:57AM 30.3793 104.7859 105° East  Level Estimated
12:58AM 30.3540 104.8905 106° East  Level Estimated
12:59AM 30.3286 104.9950 106° East  Level Estimated
01:00AM 30.3032 105.0995 106° East  Level Estimated
01:01AM 30.2776 105.2039 106° East  Level Estimated
01:02AM 30.2520 105.3083 106° East  Level Estimated
01:03AM 30.2263 105.4127 106° East  Level Estimated
01:04AM 30.2005 105.5170 106° East  Level Estimated
01:05AM 30.1747 105.6212 106° East  Level Estimated
01:06AM 30.1487 105.7253 106° East  Level Estimated
01:07AM 30.1227 105.8295 106° East  Level Estimated
01:08AM 30.0966 105.9335 106° East  Level Estimated
01:09AM 30.0704 106.0375 106° East  Level Estimated
01:10AM 30.0441 106.1415 106° East  Level Estimated
01:11AM 30.0178 106.2454 106° East  Level Estimated
01:12AM 29.9913 106.3492 106° East  Level Estimated
01:13AM 29.9648 106.4530 106° East  Level Estimated
01:14AM 29.9382 106.5567 106° East  Level Estimated
01:15AM 29.9115 106.6604 107° East  Level Estimated
01:16AM 29.8848 106.7640 107° East  Level Estimated
01:17AM 29.8579 106.8676 107° East  Level Estimated
01:18AM 29.8310 106.9710 107° East  Level Estimated
01:19AM 29.8040 107.0745 107° East  Level Estimated
01:20AM 29.7769 107.1779 107° East  Level Estimated
01:21AM 29.7497 107.2812 107° East  Level Estimated
01:22AM 29.7225 107.3845 107° East  Level Estimated
01:23AM 29.6952 107.4877 107° East  Level Estimated
01:24AM 29.6677 107.5909 107° East  Level Estimated
01:25AM 29.6402 107.6940 107° East  Level Estimated
01:26AM 29.6127 107.7971 107° East  Level Estimated
01:27AM 29.5850 107.9001 107° East  Level Estimated
01:28AM 29.5573 108.0030 107° East  Level Estimated
01:29AM 29.5295 108.1059 107° East  Level Estimated
01:30AM 29.5016 108.2087 107° East  Level Estimated
01:31AM 29.4737 108.3115 107° East  Level Estimated
01:32AM 29.4456 108.4142 107° East  Level Estimated
01:33AM 29.4175 108.5169 107° East  Level Estimated
01:34AM 29.3893 108.6195 107° East  Level Estimated
01:35AM 29.3610 108.7220 108° East  Level Estimated
01:36AM 29.3327 108.8245 108° East  Level Estimated
01:37AM 29.3042 108.9269 108° East  Level Estimated
01:38AM 29.2757 109.0293 108° East  Level Estimated
01:39AM 29.2471 109.1316 108° East  Level Estimated
01:40AM 29.2185 109.2339 108° East  Level Estimated
01:41AM 29.1897 109.3361 108° East  Level Estimated
01:42AM 29.1609 109.4382 108° East  Level Estimated
01:43AM 29.1320 109.5403 108° East  Level Estimated
01:44AM 29.1030 109.6424 108° East  Level Estimated
01:45AM 29.0739 109.7443 108° East  Level Estimated
01:46AM 29.0448 109.8463 108° East  Level Estimated
01:47AM 29.0156 109.9481 108° East  Level Estimated
01:48AM 28.9863 110.0499 108° East  Level Estimated
01:49AM 28.9570 110.1517 108° East  Level Estimated
01:50AM 28.9275 110.2533 108° East  Level Estimated
01:51AM 28.8980 110.3550 108° East  Level Estimated
01:52AM 28.8684 110.4565 108° East  Level Estimated
01:53AM 28.8387 110.5581 108° East  Level Estimated
01:54AM 28.8090 110.6595 108° East  Level Estimated
01:55AM 28.7792 110.7609 109° East  Level Estimated
01:56AM 28.7493 110.8622 109° East  Level Estimated
01:57AM 28.7193 110.9635 109° East  Level Estimated
01:58AM 28.6893 111.0647 109° East  Level Estimated
01:59AM 28.6591 111.1659 109° East  Level Estimated
02:00AM 28.6289 111.2670 109° East  Level Estimated
02:01AM 28.5987 111.3680 109° East  Level Estimated
02:02AM 28.5683 111.4690 109° East  Level Estimated
02:03AM 28.5379 111.5700 109° East  Level Estimated
02:04AM 28.5074 111.6708 109° East  Level Estimated
02:05AM 28.4768 111.7717 109° East  Level Estimated
02:06AM 28.4462 111.8724 109° East  Level Estimated
02:07AM 28.4155 111.9731 109° East  Level Estimated
02:08AM 28.3847 112.0737 109° East  Level Estimated
02:09AM 28.3538 112.1743 109° East  Level Estimated
02:10AM 28.3229 112.2748 109° East  Level Estimated
02:11AM 28.2919 112.3753 109° East  Level Estimated
02:12AM 28.2608 112.4757 109° East  Level Estimated
02:13AM 28.2296 112.5760 109° East  Level Estimated
02:14AM 28.1984 112.6763 109° East  Level Estimated
02:15AM 28.1671 112.7766 109° East  Level Estimated
02:16AM 28.1357 112.8767 110° East  Level Estimated
02:17AM 28.1042 112.9769 110° East  Level Estimated
02:18AM 28.0727 113.0769 110° East  Level Estimated
02:19AM 28.0411 113.1769 110° East  Level Estimated
02:20AM 28.0094 113.2768 110° East  Level Estimated
02:21AM 27.9777 113.3767 110° East  Level Estimated
02:22AM 27.9459 113.4765 110° East  Level Estimated
02:23AM 27.9140 113.5763 110° East  Level Estimated
02:24AM 27.8820 113.6760 110° East  Level Estimated
02:25AM 27.8500 113.7756 110° East  Level Estimated
02:26AM 27.8179 113.8752 110° East  Level Estimated
02:27AM 27.7857 113.9747 110° East  Level Estimated
02:28AM 27.7535 114.0742 110° East  Level Estimated
02:29AM 27.7212 114.1736 110° East  Level Estimated
02:30AM 27.6888 114.2729 110° East  Level Estimated
02:31AM 27.6563 114.3722 110° East  Level Estimated
02:32AM 27.6238 114.4715 110° East  Level Estimated
02:33AM 27.5912 114.5706 110° East  Level Estimated
02:34AM 27.5585 114.6697 110° East  Level Estimated
02:35AM 27.5258 114.7688 110° East  Level Estimated
02:36AM 27.4930 114.8678 110° East  Level Estimated
02:37AM 27.4601 114.9667 111° Southeast  Level Estimated
02:38AM 27.4272 115.0656 111° Southeast  Level Estimated
02:39AM 27.3941 115.1644 111° Southeast  Level Estimated
02:40AM 27.3610 115.2631 111° Southeast  Level Estimated
02:41AM 27.3279 115.3618 111° Southeast  Level Estimated
02:42AM 27.2946 115.4605 111° Southeast  Level Estimated
02:43AM 27.2614 115.5591 111° Southeast  Level Estimated
02:44AM 27.2280 115.6576 111° Southeast  Level Estimated
02:45AM 27.1946 115.7560 111° Southeast  Level Estimated
02:46AM 27.1611 115.8544 111° Southeast  Level Estimated
02:47AM 27.1275 115.9528 111° Southeast  Level Estimated
02:48AM 27.0938 116.0510 111° Southeast  Level Estimated
02:49AM 27.0601 116.1493 111° Southeast  Level Estimated
02:50AM 27.0264 116.2474 111° Southeast  Level Estimated
02:51AM 26.9925 116.3455 111° Southeast  Level Estimated
02:52AM 26.9586 116.4436 111° Southeast  Level Estimated
02:53AM 26.9246 116.5416 111° Southeast  Level Estimated
02:54AM 26.8906 116.6395 111° Southeast  Level Estimated
02:55AM 26.8565 116.7374 111° Southeast  Level Estimated
02:56AM 26.8223 116.8352 111° Southeast  Level Estimated
02:57AM 26.7880 116.9329 111° Southeast  Level Estimated
02:58AM 26.7537 117.0306 111° Southeast  Level Estimated
02:59AM 26.7193 117.1283 111° Southeast  Level Estimated
03:00AM 26.6849 117.2258 112° Southeast  Level Estimated
03:01AM 26.6504 117.3233 112° Southeast  Level Estimated
03:02AM 26.6158 117.4208 112° Southeast  Level Estimated
03:03AM 26.5811 117.5182 112° Southeast  Level Estimated
03:04AM 26.5464 117.6155 112° Southeast  Level Estimated
03:05AM 26.5116 117.7128 112° Southeast  Level Estimated
03:06AM 26.4768 117.8100 112° Southeast  Level Estimated
03:07AM 26.4419 117.9072 112° Southeast  Level Estimated
03:08AM 26.4069 118.0043 112° Southeast  Level Estimated
03:09AM 26.3719 118.1013 112° Southeast  Level Estimated
03:10AM 26.3368 118.1983 112° Southeast  Level Estimated
03:11AM 26.3016 118.2952 112° Southeast  Level Estimated
03:12AM 26.2663 118.3921 112° Southeast  Level Estimated
03:13AM 26.2310 118.4889 112° Southeast  Level Estimated
03:14AM 26.1957 118.5857 112° Southeast  Level Estimated
03:15AM 26.1602 118.6824 112° Southeast  Level Estimated
03:16AM 26.1247 118.7790 112° Southeast  Level Estimated
03:17AM 26.0892 118.8756 112° Southeast  Level Estimated
03:18AM 26.0535 118.9721 112° Southeast  Level Estimated
03:19AM 26.0178 119.0685 112° Southeast  Level Estimated
03:20AM 25.9821 119.1649 112° Southeast  Level Estimated
03:21AM 25.9463 119.2613 112° Southeast  Level Estimated
03:22AM 25.9104 119.3576 112° Southeast  Level Estimated
03:23AM 25.8744 119.4538 113° Southeast  Level Estimated
03:24AM 25.8384 119.5499 113° Southeast  Level Estimated
03:25AM 25.8023 119.6460 113° Southeast  Level Estimated
03:26AM 25.7662 119.7421 113° Southeast  Level Estimated
03:27AM 25.7300 119.8381 113° Southeast  Level Estimated
03:28AM 25.6938 119.9340 113° Southeast  Level Estimated
03:29AM 25.6574 120.0299 113° Southeast  Level Estimated
03:30AM 25.6210 120.1257 113° Southeast  Level Estimated
03:31AM 25.5846 120.2214 113° Southeast  Level Estimated
03:32AM 25.5481 120.3171 113° Southeast  Level Estimated
03:33AM 25.5115 120.4128 113° Southeast  Level Estimated
03:34AM 25.4749 120.5083 113° Southeast  Level Estimated
03:35AM 25.4382 120.6039 113° Southeast  Level Estimated
03:36AM 25.4014 120.6993 113° Southeast  Level Estimated
03:37AM 25.3646 120.7947 113° Southeast  Level Estimated
03:38AM 25.3277 120.8901 113° Southeast  Level Estimated
03:39AM 25.2908 120.9853 113° Southeast  Level Estimated
03:40AM 25.2537 121.0806 113° Southeast  Level Estimated
03:41AM 25.2167 121.1757 113° Southeast  Level Estimated
03:42AM 25.1795 121.2709 113° Southeast  Level Estimated
03:43AM 25.1423 121.3659 113° Southeast  Level Estimated
03:44AM 25.1051 121.4609 113° Southeast  Level Estimated
03:45AM 25.0694 121.5517 113° Southeast  Level Estimated
03:46AM 25.0694 121.5517 326° Northwest  Level Estimated
03:47AM 25.0694 121.5517 326° Northwest  Level Estimated
03:48AM 25.0694 121.5517 326° Northwest  Level Estimated
03:49AM 25.0694 121.5517 326° Northwest  Level Estimated
03:50AM 25.0694 121.5517 326° Northwest  Level Estimated
03:51AM 25.0694 121.5517 326° Northwest  Level Estimated
03:52AM 25.0694 121.5517 326° Northwest  Level Estimated
03:53AM 25.0694 121.5517 326° Northwest  Level Estimated
03:54AM 25.0694 121.5517 326° Northwest  Level Estimated
03:55AM 25.0694 121.5517 326° Northwest  Level Estimated
03:56AM 25.0694 121.5517 326° Northwest  Level Estimated
03:57AM 25.0694 121.5517 326° Northwest  Level Estimated
03:58AM 25.0694 121.5517 326° Northwest  Level Estimated
03:59AM 25.0694 121.5517 326° Northwest  Level Estimated
04:00AM 25.0694 121.5517 326° Northwest  Level Estimated
04:01AM 25.0694 121.5517 326° Northwest  Level Estimated